createdAt,value
2022-08-11T00:00:01.527Z,1.13
2022-08-11T00:02:35.892Z,0.77
2022-08-11T00:05:09.507Z,0.50
2022-08-11T00:07:46.003Z,1.00
2022-08-11T00:10:17.804Z,0.70
2022-08-11T00:12:54.417Z,0.90
2022-08-11T00:15:23.832Z,0.70
2022-08-11T00:17:59.012Z,0.60
2022-08-11T00:20:32.620Z,1.07
2022-08-11T00:23:07.697Z,0.80
2022-08-11T00:25:41.705Z,0.83
2022-08-11T00:28:29.402Z,0.90
2022-08-11T00:31:04.756Z,0.70
2022-08-11T00:33:44.540Z,0.60
2022-08-11T00:36:22.052Z,0.70
2022-08-11T00:38:55.272Z,0.70
2022-08-11T00:41:34.598Z,1.10
2022-08-11T00:44:30.187Z,1.07
2022-08-11T00:47:18.871Z,0.50
2022-08-11T00:50:02.727Z,0.77
2022-08-11T00:53:23.555Z,0.63
2022-08-11T00:56:52.995Z,0.80
2022-08-11T01:00:03.781Z,0.70
2022-08-11T01:03:20.601Z,0.50
2022-08-11T01:06:39.586Z,0.47
2022-08-11T01:09:37.219Z,0.70
2022-08-11T01:12:47.107Z,0.70
2022-08-11T01:16:02.551Z,0.77
2022-08-11T01:19:21.784Z,0.90
2022-08-11T01:22:35.519Z,0.60
2022-08-11T01:26:11.398Z,0.73
2022-08-11T01:29:27.466Z,0.80
2022-08-11T01:32:56.868Z,0.77
2022-08-11T01:36:18.826Z,0.60
2022-08-11T01:39:34.475Z,0.97
2022-08-11T01:42:47.829Z,0.90
2022-08-11T01:45:32.205Z,0.70
2022-08-11T01:48:06.300Z,0.83
2022-08-11T01:50:54.846Z,0.83
2022-08-11T01:53:36.075Z,0.80
2022-08-11T01:56:21.897Z,0.80
2022-08-11T01:59:01.814Z,0.73
2022-08-11T02:01:45.692Z,0.80
2022-08-11T02:04:26.412Z,0.90
2022-08-11T02:07:08.730Z,0.80
2022-08-11T02:09:57.003Z,0.60
2022-08-11T02:12:49.931Z,0.50
2022-08-11T02:15:34.506Z,0.60
2022-08-11T02:18:12.577Z,0.73
2022-08-11T02:21:04.577Z,0.67
2022-08-11T02:24:06.290Z,0.60
2022-08-11T02:26:43.249Z,1.00
2022-08-11T02:29:20.738Z,0.80
2022-08-11T02:32:30.648Z,0.70
2022-08-11T02:35:18.976Z,0.90
2022-08-11T02:38:02.269Z,0.77
2022-08-11T02:40:47.040Z,0.97
2022-08-11T02:43:36.873Z,0.80
2022-08-11T02:46:23.392Z,0.70
2022-08-11T02:49:18.007Z,0.77
2022-08-11T02:52:05.163Z,0.73
2022-08-11T02:54:40.798Z,0.93
2022-08-11T02:57:19.263Z,0.93
2022-08-11T02:59:54.975Z,0.80
2022-08-11T03:02:47.038Z,0.63
2022-08-11T03:05:39.986Z,0.90
2022-08-11T03:08:27.000Z,0.80
2022-08-11T03:11:26.195Z,0.63
2022-08-11T03:14:28.557Z,0.73
2022-08-11T03:17:07.697Z,0.97
2022-08-11T03:19:53.302Z,0.83
2022-08-11T03:22:28.315Z,0.83
2022-08-11T03:25:04.755Z,0.70
2022-08-11T03:27:44.646Z,1.10
2022-08-11T03:30:19.447Z,0.77
2022-08-11T03:33:27.286Z,0.80
2022-08-11T03:36:12.080Z,0.90
2022-08-11T03:39:02.804Z,0.90
2022-08-11T03:42:03.542Z,0.80
2022-08-11T03:44:51.685Z,1.00
2022-08-11T03:47:36.449Z,1.10
2022-08-11T03:50:24.872Z,0.90
2022-08-11T03:53:11.707Z,1.00
2022-08-11T03:56:29.323Z,1.10
2022-08-11T03:59:39.559Z,0.93
2022-08-11T04:02:39.340Z,0.90
2022-08-11T04:05:54.238Z,0.80
2022-08-11T04:09:02.561Z,0.73
2022-08-11T04:12:14.656Z,0.90
2022-08-11T04:16:00.846Z,0.70
2022-08-11T04:19:40.001Z,0.80
2022-08-11T04:24:36.542Z,1.00
2022-08-11T04:26:37.957Z,0.80
2022-08-11T04:29:36.023Z,1.00
2022-08-11T04:32:30.069Z,0.90
2022-08-11T04:35:20.588Z,1.07
2022-08-11T04:38:34.790Z,1.07
2022-08-11T04:42:31.027Z,0.83
2022-08-11T04:45:52.743Z,0.90
2022-08-11T04:48:57.550Z,0.90
2022-08-11T04:52:35.799Z,0.90
2022-08-11T04:55:50.971Z,0.87
2022-08-11T04:58:44.471Z,1.10
2022-08-11T05:01:42.273Z,0.97
2022-08-11T05:04:57.824Z,1.30
2022-08-11T05:08:15.297Z,1.03
2022-08-11T05:10:59.676Z,1.13
2022-08-11T05:13:52.530Z,1.17
2022-08-11T05:16:45.641Z,0.90
2022-08-11T05:19:36.760Z,1.10
2022-08-11T05:22:27.892Z,1.13
2022-08-11T05:26:45.430Z,1.10
2022-08-11T05:28:30.687Z,1.20
2022-08-11T05:31:23.288Z,1.17
2022-08-11T05:34:11.798Z,1.30
2022-08-11T05:36:49.860Z,1.10
2022-08-11T05:39:42.601Z,1.10
2022-08-11T05:42:30.720Z,1.07
2022-08-11T05:45:23.269Z,1.13
2022-08-11T05:48:14.116Z,1.07
2022-08-11T05:51:02.609Z,1.10
2022-08-11T05:54:07.023Z,1.20
2022-08-11T05:56:58.296Z,1.17
2022-08-11T05:59:28.689Z,1.10
2022-08-11T06:02:03.593Z,1.17
2022-08-11T06:04:34.090Z,1.13
2022-08-11T06:07:06.366Z,0.93
2022-08-11T06:09:37.914Z,0.93
2022-08-11T06:12:09.606Z,1.13
2022-08-11T06:14:46.042Z,1.20
2022-08-11T06:17:14.891Z,1.00
2022-08-11T06:19:50.641Z,1.00
2022-08-11T06:22:23.570Z,1.10
2022-08-11T06:24:58.801Z,0.90
2022-08-11T06:27:32.009Z,1.00
2022-08-11T06:30:01.128Z,1.40
2022-08-11T06:32:33.553Z,1.00
2022-08-11T06:35:21.145Z,1.17
2022-08-11T06:38:07.740Z,1.13
2022-08-11T06:41:05.248Z,1.17
2022-08-11T06:43:55.985Z,1.13
2022-08-11T06:46:31.568Z,1.03
2022-08-11T06:49:04.651Z,0.97
2022-08-11T06:51:35.345Z,1.40
2022-08-11T06:54:07.471Z,1.60
2022-08-11T06:57:26.311Z,1.40
2022-08-11T07:00:04.177Z,1.17
2022-08-11T07:02:35.453Z,1.40
2022-08-11T07:05:10.073Z,1.30
2022-08-11T07:08:58.730Z,1.10
2022-08-11T07:12:19.898Z,0.97
2022-08-11T07:15:11.368Z,0.70
2022-08-11T07:18:08.902Z,1.10
2022-08-11T07:21:01.779Z,1.20
2022-08-11T07:23:49.808Z,1.00
2022-08-11T07:26:38.271Z,1.07
2022-08-11T07:29:10.631Z,1.20
2022-08-11T07:31:45.335Z,1.07
2022-08-11T07:34:21.038Z,1.20
2022-08-11T07:36:55.382Z,1.00
2022-08-11T07:39:28.870Z,1.20
2022-08-11T07:42:00.231Z,0.97
2022-08-11T07:44:34.835Z,1.30
2022-08-11T07:47:22.382Z,1.30
2022-08-11T07:50:11.955Z,1.27
2022-08-11T07:52:41.064Z,1.10
2022-08-11T07:55:17.879Z,1.13
2022-08-11T07:58:15.499Z,1.30
2022-08-11T08:01:21.831Z,1.10
2022-08-11T08:04:09.600Z,1.30
2022-08-11T08:06:57.105Z,0.90
2022-08-11T08:09:44.642Z,1.00
2022-08-11T08:12:33.920Z,1.13
2022-08-11T08:15:25.979Z,1.27
2022-08-11T08:18:09.137Z,1.30
2022-08-11T08:20:50.055Z,1.17
2022-08-11T08:23:33.200Z,1.33
2022-08-11T08:26:16.786Z,1.15
2022-08-11T08:28:47.410Z,1.00
2022-08-11T08:31:16.130Z,1.25
2022-08-11T08:33:44.976Z,1.10
2022-08-11T08:36:15.615Z,1.13
2022-08-11T08:38:50.315Z,1.38
2022-08-11T08:41:23.842Z,1.15
2022-08-11T08:44:20.632Z,1.25
2022-08-11T08:46:52.856Z,1.50
2022-08-11T08:49:28.429Z,1.00
2022-08-11T08:52:26.328Z,1.10
2022-08-11T08:54:57.231Z,1.23
2022-08-11T08:57:30.166Z,1.20
2022-08-11T09:00:01.414Z,1.10
2022-08-11T09:02:33.979Z,1.02
2022-08-11T09:05:05.432Z,1.42
2022-08-11T09:07:39.540Z,1.13
2022-08-11T09:10:11.636Z,1.30
2022-08-11T09:12:43.488Z,1.00
2022-08-11T09:15:19.765Z,1.02
2022-08-11T09:17:50.757Z,1.25
2022-08-11T09:20:23.907Z,1.10
2022-08-11T09:26:21.855Z,1.00
2022-08-11T09:28:51.506Z,1.48
2022-08-11T09:31:23.148Z,1.10
2022-08-11T09:33:55.900Z,0.80
2022-08-11T09:36:42.429Z,1.20
2022-08-11T09:39:31.304Z,1.00
2022-08-11T09:42:03.344Z,1.23
2022-08-11T09:44:48.855Z,1.40
2022-08-11T09:47:25.866Z,1.20
2022-08-11T09:50:00.386Z,0.90
2022-08-11T09:52:33.726Z,1.40
2022-08-11T09:55:10.969Z,1.10
2022-08-11T09:57:59.515Z,1.13
2022-08-11T10:00:31.636Z,1.30
2022-08-11T10:03:02.831Z,1.15
2022-08-11T10:05:49.828Z,0.90
2022-08-11T10:08:20.478Z,1.25
2022-08-11T10:10:50.915Z,1.15
2022-08-11T10:14:31.723Z,1.20
2022-08-11T10:16:15.940Z,0.98
2022-08-11T10:18:53.045Z,1.30
2022-08-11T10:21:36.434Z,0.90
2022-08-11T10:24:25.385Z,1.10
2022-08-11T10:27:00.143Z,1.00
2022-08-11T10:29:52.000Z,1.27
2022-08-11T10:32:57.570Z,1.10
2022-08-11T10:35:31.978Z,1.13
2022-08-11T10:38:08.464Z,1.20
2022-08-11T10:40:41.369Z,1.58
2022-08-11T10:43:14.101Z,1.10
2022-08-11T10:46:05.069Z,1.27
2022-08-11T10:48:41.333Z,1.30
2022-08-11T10:51:50.157Z,1.55
2022-08-11T10:54:24.636Z,1.00
2022-08-11T10:57:13.265Z,1.23
2022-08-11T10:59:43.415Z,1.30
2022-08-11T11:02:15.797Z,1.30
2022-08-11T11:05:09.355Z,1.10
2022-08-11T11:07:46.177Z,1.00
2022-08-11T11:10:14.741Z,0.90
2022-08-11T11:13:04.837Z,1.30
2022-08-11T11:15:53.646Z,1.58
2022-08-11T11:18:25.931Z,1.40
2022-08-11T11:20:58.785Z,1.00
2022-08-11T11:23:40.305Z,1.30
2022-08-11T11:26:39.428Z,1.33
2022-08-11T11:29:32.973Z,1.00
2022-08-11T11:32:19.003Z,1.20
2022-08-11T11:35:18.038Z,1.10
2022-08-11T11:37:56.166Z,1.17
2022-08-11T11:40:35.032Z,1.15
2022-08-11T11:43:04.178Z,1.17
2022-08-11T11:45:33.335Z,1.25
2022-08-11T11:48:03.346Z,1.25
2022-08-11T11:50:35.658Z,1.33
2022-08-11T11:53:09.278Z,1.27
2022-08-11T11:55:39.934Z,1.02
2022-08-11T11:58:27.313Z,1.30
2022-08-11T12:01:15.483Z,1.35
2022-08-11T12:03:47.561Z,1.30
2022-08-11T12:06:16.699Z,1.17
2022-08-11T12:08:49.886Z,1.17
2022-08-11T12:11:43.556Z,1.23
2022-08-11T12:14:13.411Z,1.30
2022-08-11T12:16:46.278Z,1.40
2022-08-11T12:19:17.064Z,1.23
2022-08-11T12:22:04.852Z,1.17
2022-08-11T12:24:54.011Z,1.20
2022-08-11T12:27:26.287Z,1.10
2022-08-11T12:30:06.035Z,1.23
2022-08-11T12:32:38.432Z,0.95
2022-08-11T12:35:09.585Z,1.00
2022-08-11T12:37:42.163Z,1.15
2022-08-11T12:40:49.893Z,1.27
2022-08-11T12:43:41.787Z,1.30
2022-08-11T12:46:15.635Z,1.45
2022-08-11T12:49:04.851Z,1.30
2022-08-11T12:52:01.028Z,1.10
2022-08-11T12:54:59.887Z,1.02
2022-08-11T12:57:50.976Z,1.48
2022-08-11T13:00:40.386Z,1.40
2022-08-11T13:03:29.214Z,1.20
2022-08-11T13:06:01.777Z,1.00
2022-08-11T13:08:35.485Z,1.40
2022-08-11T13:11:23.118Z,1.13
2022-08-11T13:13:57.718Z,1.13
2022-08-11T13:16:53.191Z,1.42
2022-08-11T13:19:23.739Z,1.20
2022-08-11T13:21:55.352Z,1.20
2022-08-11T13:24:25.134Z,1.30
2022-08-11T13:26:54.156Z,1.10
2022-08-11T13:29:26.654Z,1.50
2022-08-11T13:32:00.466Z,1.25
2022-08-11T13:34:32.330Z,1.17
2022-08-11T13:37:05.039Z,1.30
2022-08-11T13:39:36.382Z,1.17
2022-08-11T13:42:06.878Z,1.13
2022-08-11T13:44:39.176Z,1.30
2022-08-11T13:47:13.384Z,1.13
2022-08-11T13:49:43.287Z,1.40
2022-08-11T13:52:15.381Z,1.42
2022-08-11T13:54:48.047Z,1.30
2022-08-11T13:58:08.234Z,1.20
2022-08-11T14:00:13.358Z,1.35
2022-08-11T14:02:57.065Z,1.20
2022-08-11T14:05:30.411Z,1.30
2022-08-11T14:08:03.728Z,1.25
2022-08-11T14:10:35.324Z,1.40
2022-08-11T14:13:27.331Z,1.30
2022-08-11T14:16:02.191Z,1.05
2022-08-11T14:18:34.090Z,1.20
2022-08-11T14:21:24.198Z,1.10
2022-08-11T14:23:59.300Z,1.30
2022-08-11T14:26:31.825Z,1.42
2022-08-11T14:29:04.390Z,1.20
2022-08-11T14:31:35.480Z,1.50
2022-08-11T14:34:08.555Z,0.98
2022-08-11T14:36:41.088Z,1.30
2022-08-11T14:39:12.924Z,1.20
2022-08-11T14:42:07.668Z,1.27
2022-08-11T14:45:03.552Z,1.10
2022-08-11T14:47:35.747Z,1.20
2022-08-11T14:50:12.482Z,1.10
2022-08-11T14:52:50.393Z,1.30
2022-08-11T14:55:37.998Z,1.30
2022-08-11T14:58:10.147Z,1.23
2022-08-11T15:00:40.246Z,1.20
2022-08-11T15:03:11.703Z,1.30
2022-08-11T15:05:56.765Z,1.50
2022-08-11T15:08:47.977Z,1.17
2022-08-11T15:11:37.128Z,1.10
2022-08-11T15:14:09.237Z,1.50
2022-08-11T15:17:00.177Z,1.17
2022-08-11T15:19:40.114Z,1.20
2022-08-11T15:22:29.477Z,1.27
2022-08-11T15:25:00.156Z,1.25
2022-08-11T15:27:49.659Z,1.00
2022-08-11T15:30:35.891Z,1.33
2022-08-11T15:33:27.948Z,1.23
2022-08-11T15:36:16.107Z,1.20
2022-08-11T15:38:55.390Z,1.20
2022-08-11T15:41:54.376Z,1.20
2022-08-11T15:45:03.508Z,1.20
2022-08-11T15:47:41.332Z,1.30
2022-08-11T15:50:16.292Z,1.20
2022-08-11T15:52:54.892Z,1.27
2022-08-11T15:55:25.904Z,1.27
2022-08-11T15:58:13.992Z,1.20
2022-08-11T16:01:04.388Z,1.33
2022-08-11T16:04:07.240Z,1.25
2022-08-11T16:06:54.266Z,1.08
2022-08-11T16:09:37.584Z,1.08
2022-08-11T16:12:22.158Z,1.23
2022-08-11T16:15:13.726Z,1.20
2022-08-11T16:17:45.813Z,1.23
2022-08-11T16:20:16.979Z,1.80
2022-08-11T16:23:01.325Z,1.90
2022-08-11T16:27:02.679Z,1.58
2022-08-11T16:28:29.290Z,1.30
2022-08-11T16:30:58.928Z,1.02
2022-08-11T16:33:50.554Z,1.35
2022-08-11T16:36:35.453Z,1.40
2022-08-11T16:39:05.188Z,1.27
2022-08-11T16:41:54.821Z,1.20
2022-08-11T16:44:44.128Z,1.30
2022-08-11T16:47:16.105Z,1.15
2022-08-11T16:49:52.304Z,1.48
2022-08-11T16:52:22.462Z,1.35
2022-08-11T16:54:52.899Z,1.25
2022-08-11T16:57:43.967Z,1.20
2022-08-11T17:00:17.469Z,1.25
2022-08-11T17:03:08.541Z,1.20
2022-08-11T17:06:01.008Z,1.48
2022-08-11T17:08:57.490Z,1.40
2022-08-11T17:11:46.994Z,1.15
2022-08-11T17:14:18.469Z,1.33
2022-08-11T17:17:08.380Z,1.27
2022-08-11T17:20:39.581Z,1.25
2022-08-11T17:22:50.555Z,1.27
2022-08-11T17:25:20.678Z,1.15
2022-08-11T17:27:49.971Z,1.10
2022-08-11T17:30:18.952Z,1.23
2022-08-11T17:33:09.114Z,1.23
2022-08-11T17:35:44.646Z,1.48
2022-08-11T17:38:18.786Z,1.33
2022-08-11T17:41:07.018Z,1.58
2022-08-11T17:43:53.757Z,1.40
2022-08-11T17:46:40.153Z,1.40
2022-08-11T17:49:13.201Z,1.27
2022-08-11T17:52:03.526Z,1.10
2022-08-11T17:54:52.620Z,1.60
2022-08-11T17:57:47.499Z,1.33
2022-08-11T18:00:17.220Z,1.60
2022-08-11T18:03:04.823Z,1.08
2022-08-11T18:05:38.851Z,1.30
2022-08-11T18:08:28.578Z,1.30
2022-08-11T18:11:17.551Z,1.27
2022-08-11T18:14:25.798Z,1.17
2022-08-11T18:17:11.882Z,1.08
2022-08-11T18:19:58.204Z,1.10
2022-08-11T18:22:50.882Z,1.30
2022-08-11T18:25:45.338Z,1.52
2022-08-11T18:28:36.044Z,1.55
2022-08-11T18:31:24.787Z,1.20
2022-08-11T18:34:14.439Z,1.35
2022-08-11T18:37:09.533Z,1.00
2022-08-11T18:40:15.759Z,1.10
2022-08-11T18:43:06.056Z,1.25
2022-08-11T18:46:00.512Z,1.27
2022-08-11T18:48:55.797Z,1.10
2022-08-11T18:51:44.247Z,1.25
2022-08-11T18:54:32.528Z,1.00
2022-08-11T18:57:22.829Z,1.40
2022-08-11T19:00:10.850Z,1.10
2022-08-11T19:03:00.494Z,1.23
2022-08-11T19:06:06.126Z,1.08
2022-08-11T19:09:07.507Z,1.25
2022-08-11T19:11:55.605Z,1.08
2022-08-11T19:14:53.338Z,1.15
2022-08-11T19:17:44.647Z,1.10
2022-08-11T19:20:37.086Z,1.20
2022-08-11T19:23:27.558Z,1.23
2022-08-11T19:26:15.567Z,1.10
2022-08-11T19:29:04.558Z,1.17
2022-08-11T19:31:53.133Z,1.30
2022-08-11T19:34:42.729Z,1.05
2022-08-11T19:37:30.391Z,1.10
2022-08-11T19:40:20.969Z,1.15
2022-08-11T19:43:14.788Z,1.00
2022-08-11T19:46:11.272Z,1.25
2022-08-11T19:49:01.288Z,1.20
2022-08-11T19:51:53.409Z,1.52
2022-08-11T19:54:44.858Z,1.40
2022-08-11T19:57:37.109Z,1.50
2022-08-11T20:00:30.411Z,1.00
2022-08-11T20:03:18.198Z,1.30
2022-08-11T20:06:07.181Z,1.25
2022-08-11T20:08:58.607Z,1.33
2022-08-11T20:11:47.268Z,1.30
2022-08-11T20:14:35.618Z,1.30
2022-08-11T20:17:23.171Z,1.67
2022-08-11T20:20:12.256Z,1.40
2022-08-11T20:23:01.200Z,1.50
2022-08-11T20:25:51.298Z,1.48
2022-08-11T20:28:38.824Z,1.40
2022-08-11T20:31:37.118Z,1.63
2022-08-11T20:34:26.145Z,1.48
2022-08-11T20:37:13.715Z,1.23
2022-08-11T20:40:03.386Z,1.48
2022-08-11T20:42:52.357Z,1.48
2022-08-11T20:45:47.277Z,1.50
2022-08-11T20:48:45.622Z,1.48
2022-08-11T20:51:38.610Z,1.27
2022-08-11T20:54:38.222Z,1.70
2022-08-11T20:57:35.500Z,1.40
2022-08-11T21:00:39.926Z,1.30
2022-08-11T21:03:35.407Z,1.50
2022-08-11T21:06:26.348Z,1.35
2022-08-11T21:09:24.999Z,1.13
2022-08-11T21:12:13.693Z,1.42
2022-08-11T21:15:04.885Z,1.30
2022-08-11T21:18:00.261Z,1.30
2022-08-11T21:20:56.028Z,1.35
2022-08-11T21:23:44.217Z,1.20
2022-08-11T21:26:32.611Z,1.33
2022-08-11T21:29:19.623Z,1.23
2022-08-11T21:32:08.074Z,1.40
2022-08-11T21:34:55.341Z,1.30
2022-08-11T21:37:42.160Z,1.30
2022-08-11T21:40:29.951Z,1.40
2022-08-11T21:43:18.396Z,1.30
2022-08-11T21:46:05.944Z,1.58
2022-08-11T21:48:55.015Z,1.30
2022-08-11T21:51:41.542Z,1.30
2022-08-11T21:54:31.366Z,1.23
2022-08-11T21:57:17.989Z,1.20
2022-08-11T22:00:11.249Z,1.25
2022-08-11T22:02:58.633Z,1.23
2022-08-11T22:05:49.798Z,1.20
2022-08-11T22:08:36.143Z,1.33
2022-08-11T22:11:32.095Z,1.50
2022-08-11T22:14:19.323Z,1.38
2022-08-11T22:17:05.335Z,1.52
2022-08-11T22:19:53.409Z,1.50
2022-08-11T22:22:52.314Z,1.30
2022-08-11T22:25:51.649Z,1.27
2022-08-11T22:28:44.583Z,1.30
2022-08-11T22:31:31.093Z,1.45
2022-08-11T22:34:17.036Z,1.45
2022-08-11T22:37:07.034Z,1.30
2022-08-11T22:40:02.234Z,1.30
2022-08-11T22:42:49.329Z,1.08
2022-08-11T22:45:35.454Z,1.30
2022-08-11T22:48:24.093Z,1.40
2022-08-11T22:51:11.173Z,1.50
2022-08-11T22:53:59.462Z,1.25
2022-08-11T22:56:49.043Z,1.40
2022-08-11T22:59:37.267Z,1.15
2022-08-11T23:02:25.239Z,1.20
2022-08-11T23:05:12.188Z,1.60
2022-08-11T23:07:59.636Z,1.40
2022-08-11T23:10:46.321Z,1.27
2022-08-11T23:13:34.229Z,1.17
2022-08-11T23:16:20.752Z,1.33
2022-08-11T23:19:08.732Z,1.40
2022-08-11T23:21:56.619Z,1.40
2022-08-11T23:24:44.448Z,1.38
2022-08-11T23:27:32.561Z,1.30
2022-08-11T23:30:20.371Z,1.40
2022-08-11T23:33:14.114Z,1.40
2022-08-11T23:36:05.394Z,1.50
2022-08-11T23:38:52.142Z,1.42
2022-08-11T23:41:38.579Z,1.27
2022-08-11T23:44:26.643Z,1.50
2022-08-11T23:47:19.253Z,1.50
2022-08-11T23:50:06.857Z,1.30
2022-08-11T23:52:54.326Z,1.60
2022-08-11T23:55:40.801Z,1.40
2022-08-11T23:58:26.662Z,1.33
